Time;durP1;ratioP1;P1;durP2;ratioP2;P2;SDS_P1;SDS_P2;PMS_P1;PMS_P2;Temp;Humidity;BMP_temperature;BMP_pressure;BME280_temperature;BME280_humidity;BME280_pressure;Samples;Min_cycle;Max_cycle;Signal;HPM_P1;HPM_P2
2023/09/21 00:00:24;;;;;;;10.30;6.60;;;;;;;-128.00;-1.00;-1.00;105730;1249;1003510;-79
2023/09/21 00:03:14;;;;;;;9.70;7.20;;;;;;;-128.00;-1.00;-1.00;105722;1249;1062831;-80
2023/09/21 00:05:46;;;;;;;13.50;6.60;;;;;;;-128.00;-1.00;-1.00;105595;1251;1059413;-80
2023/09/21 00:08:12;;;;;;;13.40;6.90;;;;;;;-128.00;-1.00;-1.00;105467;1251;1058682;-80
2023/09/21 00:10:39;;;;;;;12.60;7.10;;;;;;;-128.00;-1.00;-1.00;105574;1251;1003938;-80
2023/09/21 00:13:06;;;;;;;12.70;6.40;;;;;;;-128.00;-1.00;-1.00;105608;1250;1004072;-80
2023/09/21 00:15:33;;;;;;;9.70;5.90;;;;;;;-128.00;-1.00;-1.00;105629;1251;1004220;-80
2023/09/21 00:18:00;;;;;;;14.70;6.40;;;;;;;-128.00;-1.00;-1.00;105598;1251;1003974;-80
2023/09/21 00:21:02;;;;;;;9.80;6.20;;;;;;;-128.00;-1.00;-1.00;105587;1251;1005329;-80
2023/09/21 00:23:21;;;;;;;12.10;6.00;;;;;;;-128.00;-1.00;-1.00;105562;1251;1046688;-80
2023/09/21 00:25:47;;;;;;;9.80;6.50;;;;;;;-128.00;-1.00;-1.00;105645;1251;1004029;-80
2023/09/21 00:28:14;;;;;;;14.10;6.30;;;;;;;-128.00;-1.00;-1.00;105597;1250;1004717;-80
2023/09/21 00:30:41;;;;;;;8.30;5.30;;;;;;;-128.00;-1.00;-1.00;105477;1251;1003772;-79
2023/09/21 00:33:08;;;;;;;10.10;6.20;;;;;;;-128.00;-1.00;-1.00;105588;1250;1003800;-79
2023/09/21 00:35:39;;;;;;;10.90;6.20;;;;;;;-128.00;-1.00;-1.00;105473;1251;1003776;-79
2023/09/21 00:38:08;;;;;;;13.50;6.50;;;;;;;-128.00;-1.00;-1.00;105601;1251;1046223;-80
2023/09/21 00:40:38;;;;;;;10.90;6.10;;;;;;;-128.00;-1.00;-1.00;105620;1250;1061870;-80
2023/09/21 00:43:12;;;;;;;8.70;5.00;;;;;;;-128.00;-1.00;-1.00;105531;1251;1057887;-80
2023/09/21 00:45:43;;;;;;;10.00;6.20;;;;;;;-128.00;-1.00;-1.00;105613;1251;1059153;-80
2023/09/21 00:48:11;;;;;;;10.20;5.80;;;;;;;-128.00;-1.00;-1.00;105615;1251;1046803;-80
2023/09/21 00:50:41;;;;;;;9.90;5.80;;;;;;;-128.00;-1.00;-1.00;105744;1250;1004654;-80
2023/09/21 00:53:08;;;;;;;7.00;5.30;;;;;;;-128.00;-1.00;-1.00;105727;1250;1062600;-80
2023/09/21 00:55:39;;;;;;;10.30;5.70;;;;;;;-128.00;-1.00;-1.00;105745;1250;1004388;-80
2023/09/21 00:58:07;;;;;;;12.30;6.40;;;;;;;-128.00;-1.00;-1.00;105716;1250;1059087;-80
2023/09/21 01:00:34;;;;;;;10.70;7.00;;;;;;;-128.00;-1.00;-1.00;105709;1250;1004841;-80
2023/09/21 01:03:07;;;;;;;9.70;6.30;;;;;;;-128.00;-1.00;-1.00;105757;1250;1005744;-80
2023/09/21 01:05:34;;;;;;;21.60;6.20;;;;;;;-128.00;-1.00;-1.00;105619;1250;1062399;-80
2023/09/21 01:08:00;;;;;;;7.00;5.30;;;;;;;-128.00;-1.00;-1.00;105641;1250;1004474;-80
2023/09/21 01:10:27;;;;;;;9.00;5.50;;;;;;;-128.00;-1.00;-1.00;105471;1250;1004588;-80
2023/09/21 01:12:53;;;;;;;11.30;6.90;;;;;;;-128.00;-1.00;-1.00;105393;1251;1005243;-80
2023/09/21 01:15:20;;;;;;;9.50;6.20;;;;;;;-128.00;-1.00;-1.00;105641;1251;1004774;-80
2023/09/21 01:17:47;;;;;;;13.30;7.40;;;;;;;-128.00;-1.00;-1.00;105626;1250;1004770;-80
2023/09/21 01:20:19;;;;;;;10.30;5.80;;;;;;;-128.00;-1.00;-1.00;105480;1251;1004204;-81
2023/09/21 01:22:45;;;;;;;9.40;5.90;;;;;;;-128.00;-1.00;-1.00;105642;1251;1060150;-80
2023/09/21 01:25:14;;;;;;;11.20;5.30;;;;;;;-128.00;-1.00;-1.00;105491;1251;1003399;-80
2023/09/21 01:27:41;;;;;;;9.60;6.20;;;;;;;-128.00;-1.00;-1.00;105613;1250;1047987;-80
2023/09/21 01:30:12;;;;;;;8.80;5.30;;;;;;;-128.00;-1.00;-1.00;105629;1250;1004584;-80
2023/09/21 01:32:40;;;;;;;16.60;6.40;;;;;;;-128.00;-1.00;-1.00;105613;1250;1057297;-80
2023/09/21 01:35:07;;;;;;;6.40;4.90;;;;;;;-128.00;-1.00;-1.00;105619;1250;1004174;-80
2023/09/21 01:37:35;;;;;;;10.60;5.30;;;;;;;-128.00;-1.00;-1.00;105604;1251;1004275;-80
2023/09/21 01:40:10;;;;;;;12.50;5.30;;;;;;;-128.00;-1.00;-1.00;105611;1250;1004332;-80
2023/09/21 01:42:36;;;;;;;9.50;5.60;;;;;;;-128.00;-1.00;-1.00;105529;1251;1063449;-80
2023/09/21 01:45:03;;;;;;;10.50;6.50;;;;;;;-128.00;-1.00;-1.00;105601;1250;1005363;-80
2023/09/21 01:47:30;;;;;;;10.80;5.20;;;;;;;-128.00;-1.00;-1.00;105619;1251;1004287;-80
2023/09/21 01:49:57;;;;;;;13.00;6.00;;;;;;;-128.00;-1.00;-1.00;105661;1250;1005110;-80
2023/09/21 01:52:23;;;;;;;12.50;5.10;;;;;;;-128.00;-1.00;-1.00;105742;1249;1004964;-80
2023/09/21 01:54:50;;;;;;;7.60;5.30;;;;;;;-128.00;-1.00;-1.00;105736;1250;1004511;-81
2023/09/21 01:57:17;;;;;;;7.60;5.80;;;;;;;-128.00;-1.00;-1.00;105758;1250;1004153;-80
2023/09/21 01:59:44;;;;;;;10.00;6.30;;;;;;;-128.00;-1.00;-1.00;105714;1250;1003751;-80
2023/09/21 02:02:11;;;;;;;9.00;5.50;;;;;;;-128.00;-1.00;-1.00;105706;1249;1003274;-80
2023/09/21 02:04:37;;;;;;;9.90;5.10;;;;;;;-128.00;-1.00;-1.00;105655;1251;1004686;-80
2023/09/21 02:07:04;;;;;;;8.50;5.60;;;;;;;-128.00;-1.00;-1.00;105604;1250;1003972;-80
2023/09/21 02:09:33;;;;;;;9.00;5.30;;;;;;;-128.00;-1.00;-1.00;105616;1250;1004036;-80
2023/09/21 02:12:00;;;;;;;13.80;5.70;;;;;;;-128.00;-1.00;-1.00;105575;1251;1059590;-80
2023/09/21 02:14:26;;;;;;;10.00;6.40;;;;;;;-128.00;-1.00;-1.00;105639;1250;1004192;-80
2023/09/21 02:16:54;;;;;;;10.70;5.80;;;;;;;-128.00;-1.00;-1.00;105668;1250;1004882;-80
2023/09/21 02:19:21;;;;;;;11.30;5.30;;;;;;;-128.00;-1.00;-1.00;105497;1251;1003696;-80
2023/09/21 02:21:49;;;;;;;9.30;5.80;;;;;;;-128.00;-1.00;-1.00;105643;1251;1004664;-80
2023/09/21 02:24:16;;;;;;;8.70;5.90;;;;;;;-128.00;-1.00;-1.00;105604;1250;1058927;-80
2023/09/21 02:26:42;;;;;;;11.00;5.60;;;;;;;-128.00;-1.00;-1.00;105729;1250;1004183;-80
2023/09/21 02:29:13;;;;;;;17.50;6.60;;;;;;;-128.00;-1.00;-1.00;105647;1251;1005194;-80
2023/09/21 02:31:43;;;;;;;9.60;5.80;;;;;;;-128.00;-1.00;-1.00;105625;1250;1061177;-80
2023/09/21 02:34:10;;;;;;;7.60;5.30;;;;;;;-128.00;-1.00;-1.00;105604;1251;1058202;-80
2023/09/21 02:36:38;;;;;;;12.30;5.60;;;;;;;-128.00;-1.00;-1.00;105621;1250;1003586;-80
2023/09/21 02:39:08;;;;;;;8.70;5.90;;;;;;;-128.00;-1.00;-1.00;105643;1250;1003661;-80
2023/09/21 02:41:35;;;;;;;8.80;5.20;;;;;;;-128.00;-1.00;-1.00;105625;1250;1046890;-80
2023/09/21 02:44:01;;;;;;;10.30;5.10;;;;;;;-128.00;-1.00;-1.00;105661;1250;1004408;-80
2023/09/21 02:46:29;;;;;;;10.10;5.10;;;;;;;-128.00;-1.00;-1.00;105608;1250;1004130;-80
2023/09/21 02:48:57;;;;;;;8.80;6.20;;;;;;;-128.00;-1.00;-1.00;105604;1255;1003755;-80
2023/09/21 02:51:23;;;;;;;15.30;6.40;;;;;;;-128.00;-1.00;-1.00;105629;1251;1004483;-80
2023/09/21 02:53:50;;;;;;;8.50;5.20;;;;;;;-128.00;-1.00;-1.00;105619;1250;1004645;-80
2023/09/21 02:56:19;;;;;;;8.40;5.10;;;;;;;-128.00;-1.00;-1.00;105449;1251;1005024;-80
2023/09/21 02:58:46;;;;;;;14.20;5.50;;;;;;;-128.00;-1.00;-1.00;105662;1250;1057419;-80
2023/09/21 03:01:13;;;;;;;14.70;6.20;;;;;;;-128.00;-1.00;-1.00;105623;1250;1004121;-80
2023/09/21 03:03:39;;;;;;;11.40;6.60;;;;;;;-128.00;-1.00;-1.00;105604;1250;1004414;-80
2023/09/21 03:06:06;;;;;;;9.10;5.90;;;;;;;-128.00;-1.00;-1.00;105644;1251;1005002;-80
2023/09/21 03:08:33;;;;;;;8.80;5.50;;;;;;;-128.00;-1.00;-1.00;105623;1250;1004305;-80
2023/09/21 03:11:00;;;;;;;7.60;6.20;;;;;;;-128.00;-1.00;-1.00;105600;1251;1003766;-80
2023/09/21 03:13:26;;;;;;;13.80;7.10;;;;;;;-128.00;-1.00;-1.00;105634;1250;1003752;-80
2023/09/21 03:15:54;;;;;;;11.40;6.50;;;;;;;-128.00;-1.00;-1.00;105511;1251;1004222;-80
2023/09/21 03:18:20;;;;;;;10.70;5.80;;;;;;;-128.00;-1.00;-1.00;105617;1250;1004264;-80
2023/09/21 03:20:48;;;;;;;10.00;6.50;;;;;;;-128.00;-1.00;-1.00;105554;1251;1005391;-80
2023/09/21 03:23:15;;;;;;;8.50;5.00;;;;;;;-128.00;-1.00;-1.00;105601;1250;1004062;-80
2023/09/21 03:25:43;;;;;;;12.40;5.30;;;;;;;-128.00;-1.00;-1.00;105608;1251;1003306;-80
2023/09/21 03:28:14;;;;;;;9.90;5.40;;;;;;;-128.00;-1.00;-1.00;105641;1250;1004406;-80
2023/09/21 03:30:46;;;;;;;8.70;5.70;;;;;;;-128.00;-1.00;-1.00;105616;1250;1047001;-80
2023/09/21 03:33:14;;;;;;;9.20;5.40;;;;;;;-128.00;-1.00;-1.00;105636;1250;1062541;-80
2023/09/21 03:35:41;;;;;;;7.70;4.50;;;;;;;-128.00;-1.00;-1.00;105633;1251;1059524;-80
2023/09/21 03:38:12;;;;;;;11.10;5.00;;;;;;;-128.00;-1.00;-1.00;105421;1251;1005319;-80
2023/09/21 03:40:39;;;;;;;8.10;5.00;;;;;;;-128.00;-1.00;-1.00;105497;1254;1046330;-80
2023/09/21 03:43:12;;;;;;;17.10;5.90;;;;;;;-128.00;-1.00;-1.00;105705;1251;1004260;-80
2023/09/21 03:45:39;;;;;;;13.30;5.80;;;;;;;-128.00;-1.00;-1.00;105645;1250;1063051;-80
2023/09/21 03:48:08;;;;;;;8.10;4.60;;;;;;;-128.00;-1.00;-1.00;105639;1251;1004472;-80
2023/09/21 03:50:36;;;;;;;6.00;4.30;;;;;;;-128.00;-1.00;-1.00;105699;1251;1059676;-80
2023/09/21 03:53:04;;;;;;;11.20;6.20;;;;;;;-128.00;-1.00;-1.00;105708;1250;1003917;-80
2023/09/21 03:55:32;;;;;;;15.40;5.20;;;;;;;-128.00;-1.00;-1.00;105752;1250;1046637;-80
2023/09/21 03:57:58;;;;;;;9.80;4.90;;;;;;;-128.00;-1.00;-1.00;105703;1250;1004503;-80
2023/09/21 04:02:54;;;;;;;10.10;5.40;;;;;;;-128.00;-1.00;-1.00;105715;1251;1004282;-80
2023/09/21 04:05:24;;;;;;;6.10;4.10;;;;;;;-128.00;-1.00;-1.00;105486;1254;1046622;-80
2023/09/21 04:07:51;;;;;;;17.20;7.60;;;;;;;-128.00;-1.00;-1.00;105629;1250;1047735;-80
2023/09/21 04:10:18;;;;;;;8.30;5.20;;;;;;;-128.00;-1.00;-1.00;105598;1250;1003917;-80
2023/09/21 04:12:47;;;;;;;8.90;4.70;;;;;;;-128.00;-1.00;-1.00;105588;1251;1004252;-82
2023/09/21 04:15:16;;;;;;;8.40;4.90;;;;;;;-128.00;-1.00;-1.00;105487;1251;1059199;-80
2023/09/21 04:17:42;;;;;;;6.60;4.40;;;;;;;-128.00;-1.00;-1.00;105589;1251;1046441;-80
2023/09/21 04:20:10;;;;;;;8.50;4.60;;;;;;;-128.00;-1.00;-1.00;105625;1250;1005184;-80
2023/09/21 04:22:42;;;;;;;10.00;5.10;;;;;;;-128.00;-1.00;-1.00;105669;1250;1004171;-80
2023/09/21 04:25:10;;;;;;;15.60;5.30;;;;;;;-128.00;-1.00;-1.00;105565;1251;1058470;-80
2023/09/21 04:27:38;;;;;;;8.90;5.00;;;;;;;-128.00;-1.00;-1.00;105666;1250;1003905;-80
2023/09/21 04:30:08;;;;;;;7.10;5.60;;;;;;;-128.00;-1.00;-1.00;105606;1250;1004164;-79
2023/09/21 04:32:38;;;;;;;7.80;4.80;;;;;;;-128.00;-1.00;-1.00;105613;1251;1047514;-80
2023/09/21 04:35:05;;;;;;;10.90;5.00;;;;;;;-128.00;-1.00;-1.00;105620;1250;1061609;-80
2023/09/21 04:37:35;;;;;;;8.30;4.50;;;;;;;-128.00;-1.00;-1.00;105531;1250;1004316;-80
2023/09/21 04:40:03;;;;;;;6.70;4.70;;;;;;;-128.00;-1.00;-1.00;105452;1251;1058179;-80
2023/09/21 04:42:30;;;;;;;12.70;5.40;;;;;;;-128.00;-1.00;-1.00;105559;1250;1003800;-80
2023/09/21 04:44:57;;;;;;;12.50;4.70;;;;;;;-128.00;-1.00;-1.00;105586;1250;1004459;-80
2023/09/21 04:47:24;;;;;;;7.50;5.00;;;;;;;-128.00;-1.00;-1.00;105605;1253;1005041;-80
2023/09/21 04:49:53;;;;;;;9.90;6.40;;;;;;;-128.00;-1.00;-1.00;105610;1251;1004293;-80
2023/09/21 04:52:21;;;;;;;10.70;5.00;;;;;;;-128.00;-1.00;-1.00;105597;1251;1058648;-80
2023/09/21 04:54:51;;;;;;;6.00;4.30;;;;;;;-128.00;-1.00;-1.00;105583;1251;1004308;-80
2023/09/21 04:57:18;;;;;;;8.40;4.80;;;;;;;-128.00;-1.00;-1.00;105614;1250;1046261;-80
2023/09/21 04:59:45;;;;;;;7.10;4.60;;;;;;;-128.00;-1.00;-1.00;105595;1250;1005602;-80
2023/09/21 05:02:12;;;;;;;9.20;4.20;;;;;;;-128.00;-1.00;-1.00;105568;1252;1004462;-80
2023/09/21 05:04:39;;;;;;;9.70;6.10;;;;;;;-128.00;-1.00;-1.00;105583;1250;1004145;-80
2023/09/21 05:07:06;;;;;;;15.40;4.70;;;;;;;-128.00;-1.00;-1.00;105578;1250;1005228;-80
2023/09/21 05:09:33;;;;;;;7.40;4.30;;;;;;;-128.00;-1.00;-1.00;105633;1250;1004269;-80
2023/09/21 05:12:00;;;;;;;7.90;3.90;;;;;;;-128.00;-1.00;-1.00;105631;1251;1004699;-80
2023/09/21 05:14:27;;;;;;;14.60;7.60;;;;;;;-128.00;-1.00;-1.00;105583;1251;1004925;-80
2023/09/21 05:16:57;;;;;;;34.80;18.50;;;;;;;-128.00;-1.00;-1.00;105564;1251;1004289;-80
2023/09/21 05:19:23;;;;;;;88.40;44.70;;;;;;;-128.00;-1.00;-1.00;105563;1251;1045846;-80
2023/09/21 05:21:49;;;;;;;61.10;35.60;;;;;;;-128.00;-1.00;-1.00;105590;1250;1004627;-80
2023/09/21 05:24:16;;;;;;;71.40;37.20;;;;;;;-128.00;-1.00;-1.00;105576;1250;1004861;-81
2023/09/21 05:26:42;;;;;;;40.80;26.20;;;;;;;-128.00;-1.00;-1.00;105594;1250;1004594;-81
2023/09/21 05:29:09;;;;;;;48.40;28.20;;;;;;;-128.00;-1.00;-1.00;105582;1251;1004226;-80
2023/09/21 05:31:36;;;;;;;42.30;27.40;;;;;;;-128.00;-1.00;-1.00;105552;1251;1003765;-80
2023/09/21 05:34:03;;;;;;;37.60;22.70;;;;;;;-128.00;-1.00;-1.00;105513;1254;1005241;-80
2023/09/21 05:36:30;;;;;;;30.80;19.20;;;;;;;-128.00;-1.00;-1.00;105486;1251;1004739;-80
2023/09/21 05:38:56;;;;;;;24.50;15.00;;;;;;;-128.00;-1.00;-1.00;105607;1251;1005047;-80
2023/09/21 05:41:23;;;;;;;18.60;10.10;;;;;;;-128.00;-1.00;-1.00;105624;1250;1005029;-80
2023/09/21 05:43:50;;;;;;;8.40;5.90;;;;;;;-128.00;-1.00;-1.00;105576;1251;1004117;-80
2023/09/21 05:46:17;;;;;;;12.30;5.60;;;;;;;-128.00;-1.00;-1.00;105569;1251;1004702;-80
2023/09/21 05:48:45;;;;;;;8.50;4.80;;;;;;;-128.00;-1.00;-1.00;105548;1251;1004305;-80
2023/09/21 05:51:11;;;;;;;12.50;4.90;;;;;;;-128.00;-1.00;-1.00;105630;1251;1003881;-80
2023/09/21 05:53:38;;;;;;;13.80;5.20;;;;;;;-128.00;-1.00;-1.00;105482;1251;1004494;-80
2023/09/21 05:56:04;;;;;;;6.80;4.70;;;;;;;-128.00;-1.00;-1.00;105570;1251;1003295;-80
2023/09/21 05:58:31;;;;;;;7.70;4.50;;;;;;;-128.00;-1.00;-1.00;105620;1251;1003858;-80
2023/09/21 06:01:00;;;;;;;11.40;6.00;;;;;;;-128.00;-1.00;-1.00;105605;1250;1004218;-80
2023/09/21 06:03:28;;;;;;;10.40;5.80;;;;;;;-128.00;-1.00;-1.00;105528;1250;1058653;-80
2023/09/21 06:05:54;;;;;;;9.60;5.50;;;;;;;-128.00;-1.00;-1.00;105502;1251;1004195;-81
2023/09/21 06:08:21;;;;;;;11.50;6.50;;;;;;;-128.00;-1.00;-1.00;105545;1251;1005079;-81
2023/09/21 06:10:47;;;;;;;22.10;10.70;;;;;;;-128.00;-1.00;-1.00;105634;1251;1004081;-80
2023/09/21 06:13:14;;;;;;;11.30;8.30;;;;;;;-128.00;-1.00;-1.00;105579;1251;1005152;-80
2023/09/21 06:15:47;;;;;;;11.40;6.30;;;;;;;-128.00;-1.00;-1.00;105452;1251;1004462;-81
2023/09/21 06:18:17;;;;;;;6.60;3.80;;;;;;;-128.00;-1.00;-1.00;105409;1253;1059870;-80
2023/09/21 06:20:44;;;;;;;6.60;4.00;;;;;;;-128.00;-1.00;-1.00;105615;1251;1046244;-80
2023/09/21 06:23:10;;;;;;;8.80;4.50;;;;;;;-128.00;-1.00;-1.00;105698;1251;1005037;-80
2023/09/21 06:25:37;;;;;;;12.80;4.60;;;;;;;-128.00;-1.00;-1.00;105517;1251;1004667;-80
2023/09/21 06:28:03;;;;;;;8.20;5.40;;;;;;;-128.00;-1.00;-1.00;105566;1251;1005249;-80
2023/09/21 06:30:31;;;;;;;19.60;5.60;;;;;;;-128.00;-1.00;-1.00;105547;1251;1004020;-80
2023/09/21 06:32:57;;;;;;;14.00;6.80;;;;;;;-128.00;-1.00;-1.00;105567;1250;1004103;-81
2023/09/21 06:35:24;;;;;;;8.60;5.20;;;;;;;-128.00;-1.00;-1.00;105592;1251;1005484;-81
2023/09/21 06:37:54;;;;;;;6.50;4.40;;;;;;;-128.00;-1.00;-1.00;105623;1251;1003961;-80
2023/09/21 06:40:21;;;;;;;8.50;4.80;;;;;;;-128.00;-1.00;-1.00;105557;1251;1057746;-81
2023/09/21 06:42:48;;;;;;;11.20;5.10;;;;;;;-128.00;-1.00;-1.00;105610;1251;1004369;-80
2023/09/21 06:45:14;;;;;;;7.30;4.70;;;;;;;-128.00;-1.00;-1.00;105492;1256;1004547;-80
2023/09/21 06:47:42;;;;;;;12.90;6.60;;;;;;;-128.00;-1.00;-1.00;105559;1250;1003859;-81
2023/09/21 06:50:10;;;;;;;10.70;7.40;;;;;;;-128.00;-1.00;-1.00;105499;1251;1004974;-81
2023/09/21 06:52:37;;;;;;;13.10;8.20;;;;;;;-128.00;-1.00;-1.00;105353;1251;1004958;-81
2023/09/21 06:55:05;;;;;;;13.70;6.40;;;;;;;-128.00;-1.00;-1.00;105530;1251;1004495;-80
2023/09/21 06:57:34;;;;;;;11.70;6.70;;;;;;;-128.00;-1.00;-1.00;105514;1251;1004432;-81
2023/09/21 07:00:01;;;;;;;6.40;4.00;;;;;;;-128.00;-1.00;-1.00;105503;1251;1046513;-80
2023/09/21 07:02:28;;;;;;;12.20;4.10;;;;;;;-128.00;-1.00;-1.00;105299;1254;1004101;-81
2023/09/21 07:04:55;;;;;;;8.90;3.80;;;;;;;-128.00;-1.00;-1.00;105520;1251;1004272;-81
2023/09/21 07:07:21;;;;;;;8.40;3.80;;;;;;;-128.00;-1.00;-1.00;105467;1251;1004115;-81
2023/09/21 07:09:48;;;;;;;10.90;3.40;;;;;;;-128.00;-1.00;-1.00;105512;1252;1004089;-81
2023/09/21 07:12:14;;;;;;;9.30;2.90;;;;;;;-128.00;-1.00;-1.00;105556;1250;1004571;-81
2023/09/21 07:14:41;;;;;;;6.40;2.60;;;;;;;-128.00;-1.00;-1.00;105560;1251;1003816;-81
2023/09/21 07:17:07;;;;;;;7.30;2.40;;;;;;;-128.00;-1.00;-1.00;105523;1251;1004388;-82
2023/09/21 07:19:35;;;;;;;5.20;2.90;;;;;;;-128.00;-1.00;-1.00;105441;1249;1003597;-81
2023/09/21 07:22:01;;;;;;;3.50;2.30;;;;;;;-128.00;-1.00;-1.00;105639;1250;1004970;-82
2023/09/21 07:24:29;;;;;;;7.20;3.60;;;;;;;-128.00;-1.00;-1.00;105436;1251;1004690;-81
2023/09/21 07:26:56;;;;;;;5.20;3.10;;;;;;;-128.00;-1.00;-1.00;105538;1250;1004440;-83
2023/09/21 07:29:24;;;;;;;7.90;3.90;;;;;;;-128.00;-1.00;-1.00;105542;1253;1004911;-82
2023/09/21 07:31:51;;;;;;;7.60;3.80;;;;;;;-128.00;-1.00;-1.00;105614;1251;1005136;-82
2023/09/21 07:34:17;;;;;;;4.00;2.60;;;;;;;-128.00;-1.00;-1.00;105541;1251;1003623;-82
2023/09/21 07:36:46;;;;;;;8.70;4.20;;;;;;;-128.00;-1.00;-1.00;105548;1250;1005007;-83
2023/09/21 07:39:16;;;;;;;8.00;5.20;;;;;;;-128.00;-1.00;-1.00;105564;1251;1061882;-82
2023/09/21 07:41:46;;;;;;;7.10;5.00;;;;;;;-128.00;-1.00;-1.00;105474;1251;1057174;-82
2023/09/21 07:44:13;;;;;;;5.70;3.50;;;;;;;-128.00;-1.00;-1.00;105538;1251;1057954;-82
2023/09/21 07:46:40;;;;;;;10.70;4.10;;;;;;;-128.00;-1.00;-1.00;105629;1250;1003991;-83
2023/09/21 07:49:06;;;;;;;7.30;4.20;;;;;;;-128.00;-1.00;-1.00;105456;1251;1005170;-82
2023/09/21 07:51:34;;;;;;;7.50;3.00;;;;;;;-128.00;-1.00;-1.00;105692;1251;1003684;-83
2023/09/21 07:54:03;;;;;;;5.00;3.20;;;;;;;-128.00;-1.00;-1.00;105572;1250;1004690;-83
2023/09/21 07:56:32;;;;;;;8.60;2.90;;;;;;;-128.00;-1.00;-1.00;105592;1251;1059509;-83
2023/09/21 07:58:59;;;;;;;4.90;2.20;;;;;;;-128.00;-1.00;-1.00;105597;1251;1045325;-83
2023/09/21 08:01:26;;;;;;;5.40;2.60;;;;;;;-128.00;-1.00;-1.00;105616;1250;1003675;-83
2023/09/21 08:03:54;;;;;;;7.10;2.80;;;;;;;-128.00;-1.00;-1.00;105584;1253;1005001;-83
2023/09/21 08:06:22;;;;;;;4.10;2.60;;;;;;;-128.00;-1.00;-1.00;105627;1249;1004162;-84
2023/09/21 08:08:52;;;;;;;8.10;3.00;;;;;;;-128.00;-1.00;-1.00;105585;1251;1004672;-84
2023/09/21 08:11:19;;;;;;;13.00;3.10;;;;;;;-128.00;-1.00;-1.00;105462;1252;1045254;-83
2023/09/21 08:13:46;;;;;;;5.40;2.90;;;;;;;-128.00;-1.00;-1.00;105564;1253;1004449;-84
2023/09/21 08:16:13;;;;;;;4.60;2.40;;;;;;;-128.00;-1.00;-1.00;105602;1251;1003431;-84
2023/09/21 08:18:39;;;;;;;9.10;2.40;;;;;;;-128.00;-1.00;-1.00;105541;1251;1004153;-84
2023/09/21 08:21:06;;;;;;;2.70;1.90;;;;;;;-128.00;-1.00;-1.00;105519;1253;1003841;-83
2023/09/21 08:23:33;;;;;;;7.90;3.20;;;;;;;-128.00;-1.00;-1.00;105509;1251;1004273;-83
2023/09/21 08:25:59;;;;;;;3.80;2.00;;;;;;;-128.00;-1.00;-1.00;105531;1250;1004589;-83
2023/09/21 08:28:25;;;;;;;5.90;2.70;;;;;;;-128.00;-1.00;-1.00;105572;1251;1004535;-83
2023/09/21 08:30:52;;;;;;;6.10;2.30;;;;;;;-128.00;-1.00;-1.00;105548;1254;1004438;-84
2023/09/21 08:33:20;;;;;;;5.70;2.70;;;;;;;-128.00;-1.00;-1.00;105538;1251;1004534;-83
2023/09/21 08:35:46;;;;;;;;;;;;;;;-128.00;-1.00;-1.00;105583;1251;1004652;-84
2023/09/21 08:38:13;;;;;;;4.00;1.40;;;;;;;-128.00;-1.00;-1.00;105587;1251;1004673;-84
2023/09/21 08:40:39;;;;;;;2.30;1.50;;;;;;;-128.00;-1.00;-1.00;105551;1251;1005230;-84
2023/09/21 08:43:06;;;;;;;2.70;1.20;;;;;;;-128.00;-1.00;-1.00;105708;1250;1004857;-84
2023/09/21 08:45:33;;;;;;;3.00;1.30;;;;;;;-128.00;-1.00;-1.00;105445;1251;1004403;-83
2023/09/21 08:47:59;;;;;;;7.10;1.10;;;;;;;-128.00;-1.00;-1.00;105565;1250;1003972;-83
2023/09/21 08:50:26;;;;;;;3.80;1.20;;;;;;;-128.00;-1.00;-1.00;105316;1252;1004836;-83
2023/09/21 08:52:53;;;;;;;2.30;1.30;;;;;;;-128.00;-1.00;-1.00;105406;1253;1003933;-83
2023/09/21 08:55:21;;;;;;;2.60;1.40;;;;;;;-128.00;-1.00;-1.00;105368;1251;1004312;-82
2023/09/21 08:57:48;;;;;;;6.20;1.80;;;;;;;-128.00;-1.00;-1.00;105579;1251;1004979;-82
2023/09/21 09:00:15;;;;;;;5.90;1.40;;;;;;;-128.00;-1.00;-1.00;105321;1253;1004212;-82
2023/09/21 09:02:42;;;;;;;3.10;1.40;;;;;;;-128.00;-1.00;-1.00;105599;1254;1004111;-82
2023/09/21 09:05:09;;;;;;;4.30;1.80;;;;;;;-128.00;-1.00;-1.00;105413;1254;1003987;-82
2023/09/21 09:07:41;;;;;;;5.90;1.50;;;;;;;-128.00;-1.00;-1.00;105531;1251;1004257;-82
2023/09/21 09:10:12;;;;;;;8.20;2.00;;;;;;;-128.00;-1.00;-1.00;105590;1251;1059537;-83
2023/09/21 09:12:39;;;;;;;4.20;1.40;;;;;;;-128.00;-1.00;-1.00;105597;1255;1044262;-82
2023/09/21 09:15:08;;;;;;;4.00;2.00;;;;;;;-128.00;-1.00;-1.00;105473;1251;1004534;-82
2023/09/21 09:17:35;;;;;;;3.60;2.00;;;;;;;-128.00;-1.00;-1.00;105649;1251;1063176;-82
2023/09/21 09:20:06;;;;;;;5.10;2.60;;;;;;;-128.00;-1.00;-1.00;105646;1251;1004984;-83
2023/09/21 09:22:34;;;;;;;4.50;2.20;;;;;;;-128.00;-1.00;-1.00;105537;1251;1060055;-82
2023/09/21 09:25:04;;;;;;;;;;;;;;;-128.00;-1.00;-1.00;105601;1254;1044529;-83
2023/09/21 09:27:32;;;;;;;5.50;1.70;;;;;;;-128.00;-1.00;-1.00;105574;1251;1046702;-82
2023/09/21 09:29:59;;;;;;;5.90;2.00;;;;;;;-128.00;-1.00;-1.00;105545;1251;1005273;-82
2023/09/21 09:32:35;;;;;;;11.70;2.00;;;;;;;-128.00;-1.00;-1.00;105393;1258;1004449;-82
2023/09/21 09:35:14;;;;;;;6.30;1.90;;;;;;;-128.00;-1.00;-1.00;105509;1254;1059736;-82
2023/09/21 09:37:42;;;;;;;5.50;2.00;;;;;;;-128.00;-1.00;-1.00;105569;1251;1043757;-82
2023/09/21 09:40:18;;;;;;;3.70;1.40;;;;;;;-128.00;-1.00;-1.00;105493;1252;1004114;-82
2023/09/21 09:42:45;;;;;;;4.30;1.70;;;;;;;-128.00;-1.00;-1.00;105615;1250;1061897;-82
2023/09/21 09:45:20;;;;;;;3.90;1.60;;;;;;;-128.00;-1.00;-1.00;105528;1252;1004094;-82
2023/09/21 09:47:56;;;;;;;4.30;1.50;;;;;;;-128.00;-1.00;-1.00;105585;1251;1060916;-82
2023/09/21 09:50:25;;;;;;;1.90;1.20;;;;;;;-128.00;-1.00;-1.00;105415;1253;1043995;-82
2023/09/21 09:53:13;;;;;;;5.30;2.00;;;;;;;-128.00;-1.00;-1.00;105531;1251;1046672;-82
2023/09/21 09:55:42;;;;;;;3.90;2.00;;;;;;;-128.00;-1.00;-1.00;105532;1251;1062690;-82
2023/09/21 09:58:09;;;;;;;6.80;1.70;;;;;;;-128.00;-1.00;-1.00;105426;1251;1057588;-82
2023/09/21 10:00:36;;;;;;;4.80;1.50;;;;;;;-128.00;-1.00;-1.00;105565;1251;1004696;-82
2023/09/21 10:03:04;;;;;;;5.00;1.30;;;;;;;-128.00;-1.00;-1.00;105550;1250;1004203;-82
2023/09/21 10:05:31;;;;;;;7.80;2.00;;;;;;;-128.00;-1.00;-1.00;105525;1253;1004289;-82
2023/09/21 10:08:01;;;;;;;5.60;1.50;;;;;;;-128.00;-1.00;-1.00;105475;1251;1004460;-82
2023/09/21 10:10:38;;;;;;;5.40;1.50;;;;;;;-128.00;-1.00;-1.00;105456;1251;1059252;-82
2023/09/21 10:13:05;;;;;;;5.00;1.40;;;;;;;-128.00;-1.00;-1.00;105556;1250;1058385;-82
2023/09/21 10:15:33;;;;;;;4.00;1.30;;;;;;;-128.00;-1.00;-1.00;105583;1250;1005032;-81
2023/09/21 10:18:01;;;;;;;6.90;2.30;;;;;;;-128.00;-1.00;-1.00;105423;1255;1003764;-82
2023/09/21 10:20:27;;;;;;;7.10;1.90;;;;;;;-128.00;-1.00;-1.00;105602;1254;1004403;-82
2023/09/21 10:22:54;;;;;;;3.50;1.80;;;;;;;-128.00;-1.00;-1.00;105492;1251;1003913;-83
2023/09/21 10:25:43;;;;;;;5.70;1.40;;;;;;;-128.00;-1.00;-1.00;105530;1251;1005125;-83
2023/09/21 10:28:28;;;;;;;3.00;1.30;;;;;;;-128.00;-1.00;-1.00;105574;1251;1044353;-82
2023/09/21 10:30:55;;;;;;;4.30;1.50;;;;;;;-128.00;-1.00;-1.00;105554;1253;1047599;-81
2023/09/21 10:33:22;;;;;;;4.60;1.40;;;;;;;-128.00;-1.00;-1.00;105649;1251;1005084;-83
2023/09/21 10:35:49;;;;;;;5.80;1.40;;;;;;;-128.00;-1.00;-1.00;105596;1251;1004557;-82
2023/09/21 10:38:16;;;;;;;3.60;1.60;;;;;;;-128.00;-1.00;-1.00;105551;1251;1003677;-82
2023/09/21 10:40:43;;;;;;;1.50;1.00;;;;;;;-128.00;-1.00;-1.00;105624;1251;1004862;-82
2023/09/21 10:43:37;;;;;;;6.90;1.50;;;;;;;-128.00;-1.00;-1.00;105467;1253;1005120;-81
2023/09/21 10:46:21;;;;;;;3.90;1.70;;;;;;;-128.00;-1.00;-1.00;105576;1251;1063344;-82
2023/09/21 10:48:50;;;;;;;6.10;1.70;;;;;;;-128.00;-1.00;-1.00;105565;1251;1059245;-82
2023/09/21 10:51:17;;;;;;;3.90;1.60;;;;;;;-128.00;-1.00;-1.00;105389;1253;1059084;-82
2023/09/21 10:53:44;;;;;;;5.10;1.60;;;;;;;-128.00;-1.00;-1.00;105497;1253;1003821;-82
2023/09/21 10:56:10;;;;;;;8.00;2.00;;;;;;;-128.00;-1.00;-1.00;105479;1251;1004616;-82
2023/09/21 10:58:37;;;;;;;7.60;1.90;;;;;;;-128.00;-1.00;-1.00;105586;1251;1004433;-82
2023/09/21 11:01:05;;;;;;;6.00;3.10;;;;;;;-128.00;-1.00;-1.00;105584;1251;1003668;-82
2023/09/21 11:03:35;;;;;;;5.00;3.20;;;;;;;-128.00;-1.00;-1.00;105646;1253;1059141;-82
2023/09/21 11:06:01;;;;;;;7.20;3.20;;;;;;;-128.00;-1.00;-1.00;105527;1251;1045865;-82
2023/09/21 11:08:30;;;;;;;10.70;3.90;;;;;;;-128.00;-1.00;-1.00;105581;1251;1004987;-82
2023/09/21 11:10:56;;;;;;;4.90;2.30;;;;;;;-128.00;-1.00;-1.00;105469;1251;1003791;-82
2023/09/21 11:13:23;;;;;;;6.80;2.80;;;;;;;-128.00;-1.00;-1.00;105853;1251;1003714;-82
2023/09/21 11:15:49;;;;;;;5.30;2.10;;;;;;;-128.00;-1.00;-1.00;105653;1252;1004924;-83
2023/09/21 11:18:16;;;;;;;3.50;2.10;;;;;;;-128.00;-1.00;-1.00;105759;1250;1004245;-82
2023/09/21 11:20:44;;;;;;;7.40;1.80;;;;;;;-128.00;-1.00;-1.00;105797;1252;1004701;-82